< Typhoon 198902 1989 Season Typhoon 198904 >
Typhoon 198903 (BRENDA)
General InformationTrack Information on Google MapsDetailed Wind InformationList of All Images || Disaster Info.ResourceGoogle EarthGE AnimationAtom FeedGeoJSON
Detalied Best Track (Time Zone = UTC)
Year Month Day Hour Lat. Long. Pressure (hPa) Wind (kt) Class Image Chart
1989 5 15 00 8.0 133.0 1004 0 2 Image Chart
1989 5 15 06 8.3 132.1 1002 0 2 Image Chart
1989 5 15 12 8.6 131.2 1002 0 2 Image Chart
1989 5 15 18 8.9 130.3 1002 0 2 Image Chart
1989 5 16 00 9.4 129.3 1000 35 3 Image Chart
1989 5 16 06 10.0 128.1 996 40 3 Image Chart
1989 5 16 12 10.8 126.5 992 45 3 Image Chart
1989 5 16 18 11.4 125.0 994 40 3 Image Chart
1989 5 17 00 12.0 123.6 994 40 3 Image Chart
1989 5 17 06 12.7 122.3 994 40 3 Image Chart
1989 5 17 12 13.8 121.2 994 40 3 Image Chart
1989 5 17 18 14.8 120.0 994 40 3 Image Chart
1989 5 18 00 15.4 119.1 992 45 3 Image Chart
1989 5 18 06 16.0 118.4 990 45 3 Image Chart
1989 5 18 12 16.5 117.9 990 45 3 Image Chart
1989 5 18 18 17.0 117.4 985 50 4 Image Chart
1989 5 19 00 17.4 117.0 985 50 4 Image Chart
1989 5 19 06 18.0 116.5 980 55 4 Image Chart
1989 5 19 12 18.8 115.8 980 55 4 Image Chart
1989 5 19 18 19.7 115.2 975 60 4 Image Chart
1989 5 20 00 20.5 114.6 970 65 5 Image Chart
1989 5 20 06 21.2 113.9 975 60 4 Image Chart
1989 5 20 12 21.8 113.1 985 50 4 Image Chart
1989 5 20 18 21.9 112.3 990 45 3 Image Chart
1989 5 21 00 22.5 111.5 996 40 3 Image Chart
1989 5 21 06 23.0 111.0 1000 0 2 Image Chart
1989 5 21 12 23.0 110.0 1002 0 2 Image Chart
Japan Meteorological Agency Best Track Data | Correction Date : 1992-10-21
< Typhoon 198902 1989 Season Typhoon 198904 >

Help